Nearby METAR Reports

 

KSJC - San Jose, California, USA
Distance from station: NE 9mi, 14km
Updated: Sun, 25-Feb-2024 12:53pm PST
Partly cloudy
Partly cloudy
 Wind from varies
Wind: varies 5 mph , 7 km/h
Temperature: 68°F , 20°C
Dew Point: 46°F , 8°C
Humidity: 46%
Barometer: 30.03 inHg , 1016.9 hPa
Clouds: Partly cloudy
Visibility: 10 miles , 16 km
Cloud details: Few Clouds 5000 ft
Partly cloudy 15000 ft
2024/02/25 20:53 KSJC 252053Z VRB04KT 10SM FEW050 SCT150 20/08 A3003 RMK AO2 SLP169 T02000083 58015
KNUQ - Moffett Nas/Mtn, California, USA
Distance from station: N 9mi, 14km
Updated: Sun, 25-Feb-2024 1:35pm PST
Clear
Clear
 Wind from N
Wind: N 9 mph , 15 km/h
Temperature: 64°F , 18°C
Dew Point: 52°F , 11°C
Humidity: 64%
Barometer: 30.03 inHg , 1016.9 hPa
Clouds: Clear
Visibility: 10 miles , 16 km
2024/02/25 21:35 KNUQ 252135Z AUTO 36008KT 10SM CLR 18/11 A3003 RMK AO2
 
KPAO - Palo Alto, California, USA
Distance from station: NNW 14mi, 23km
Updated: Sun, 25-Feb-2024 1:47pm PST
Few Clouds
Few Clouds
 Wind from N
Wind: N 9 mph , 15 km/h
Temperature: 63°F , 17°C
Dew Point: 50°F , 10°C
Humidity: 64%
Barometer: 30.03 inHg , 1016.9 hPa
Clouds: Few Clouds
Visibility: 10 miles , 16 km
Cloud details: Few Clouds 6000 ft
2024/02/25 21:47 KPAO 252147Z 35008KT 10SM FEW060 17/10 A3003
KRHV - San Jose/Reid, California, USA
Distance from station: ENE 12mi, 19km
Updated: Sun, 25-Feb-2024 12:50pm PST
Few Clouds
Few Clouds
 Wind from calm
Wind: Calm
Temperature: 66°F , 19°C
Dew Point: 46°F , 8°C
Humidity: 49%
Barometer: 30.04 inHg , 1017.3 hPa
Clouds: Few Clouds
Visibility: 10 miles , 16 km
Cloud details: Few Clouds 5000 ft
Few Clouds 15000 ft
2024/02/25 20:50 KRHV 252050Z 00000KT 10SM FEW050 FEW150 19/08 A3004
 
KOAK - Oakland, California, USA
Distance from station: NNW 31mi, 50km
Updated: Sun, 25-Feb-2024 12:53pm PST
Partly cloudy
Partly cloudy
 Wind from WNW
Wind: WNW 10 mph , 17 km/h
Temperature: 63°F , 17°C
Dew Point: 54°F , 12°C
Humidity: 73%
Barometer: 30.04 inHg , 1017.3 hPa
Clouds: Partly cloudy
Visibility: 10 miles , 16 km
Cloud details: Few Clouds 2000 ft
Few Clouds 11000 ft
Partly cloudy 19000 ft
2024/02/25 20:53 KOAK 252053Z 30009KT 10SM FEW020 FEW110 SCT190 17/12 A3004 RMK AO2 SLP174 T01720117 58013
KSQL - San Carlos Airpo, California, USA
Distance from station: NW 21mi, 34km
Updated: Sun, 25-Feb-2024 1:47pm PST
Clear
Clear
 Wind from NW
Wind: NW 12 mph , 19 km/h
Temperature: 64°F , 18°C
Dew Point: 50°F , 10°C
Humidity: 60%
Barometer: 30.03 inHg , 1016.9 hPa
Clouds: Clear
Visibility: 10 miles , 16 km
2024/02/25 21:47 KSQL 252147Z 31010KT 10SM CLR 18/10 A3003
 
KSFO - San Francisco, California, USA
Distance from station: NW 30mi, 49km
Updated: Sun, 25-Feb-2024 12:56pm PST
Mostly cloudy
Mostly cloudy
 Wind from NE
Wind: NE 8 mph , 13 km/h
Temperature: 61°F , 16°C
Dew Point: 54°F , 12°C
Humidity: 77%
Barometer: 30.04 inHg , 1017.3 hPa
Clouds: Mostly cloudy
Visibility: 10 miles , 16 km
Cloud details: Few Clouds 4500 ft
Mostly cloudy 20000 ft
2024/02/25 20:56 KSFO 252056Z 04007KT 10SM FEW045 BKN200 16/12 A3004 RMK AO2 SLP171 T01560122 58013 $
KE16 - San Martin, California, USA
Distance from station: ESE 27mi, 43km
Updated: Sun, 25-Feb-2024 1:35pm PST
Clear
Clear
 Wind from SSW
Wind: SSW 12 mph , 19 km/h
Temperature: 68°F , 20°C
Dew Point: 46°F , 8°C
Humidity: 46%
Barometer: 30.04 inHg , 1017.3 hPa
Clouds: Clear
Visibility: 10 miles , 16 km
2024/02/25 21:35 KE16 252135Z AUTO 20010KT 10SM CLR 20/08 A3004 RMK AO2 PWINO PNO
 
KWVI - Watsonville, California, USA
Distance from station: SSE 27mi, 44km
Updated: Sun, 25-Feb-2024 11:53am PST
NOT Current
Clear
Clear
 Wind from WSW
Wind: WSW 8 mph , 13 km/h
Barometer: 30.08 inHg , 1018.6 hPa
Clouds: Clear
Visibility: 10 miles , 16 km
2024/02/25 19:53 KWVI 251953Z AUTO 24007KT 10SM CLR A3008 RMK AO2 SLPNO $
KHAF - Half Moon Bay, California, USA
Distance from station: WNW 31mi, 50km
Updated: Sun, 25-Feb-2024 1:35pm PST
Few Clouds
Few Clouds
 Wind from S
Wind: S 7 mph , 11 km/h
Temperature: 57°F , 14°C
Dew Point: 54°F , 12°C
Humidity: 88%
Barometer: 30.06 inHg , 1017.9 hPa
Clouds: Few Clouds
Visibility: 7 miles , 11 km
Cloud details: Few Clouds 1300 ft
2024/02/25 21:35 KHAF 252135Z AUTO 18006KT 7SM FEW013 14/12 A3006 RMK AO2
 
KHWD - Hayward, California, USA
Distance from station: N 28mi, 44km
Updated: Sun, 25-Feb-2024 12:54pm PST
Few Clouds
Few Clouds
 Wind from WNW
Wind: WNW 8 mph , 13 km/h
Temperature: 66°F , 19°C
Dew Point: 50°F , 10°C
Humidity: 56%
Barometer: 30.04 inHg , 1017.3 hPa
Clouds: Few Clouds
Visibility: 10 miles , 16 km
Cloud details: Few Clouds 1500 ft
2024/02/25 20:54 KHWD 252054Z 29007KT 10SM FEW015 19/10 A3004 RMK AO2 SLP181 T01890100 58013
KLVK - Livermore, California, USA
Distance from station: NNE 31mi, 51km
Updated: Sun, 25-Feb-2024 12:53pm PST
Clear
Clear
 Wind from varies
Wind: varies 5 mph , 7 km/h
Temperature: 66°F , 19°C
Dew Point: 45°F , 7°C
Humidity: 46%
Barometer: 30.02 inHg , 1016.6 hPa
Clouds: Clear
Visibility: 10 miles , 16 km
2024/02/25 20:53 KLVK 252053Z VRB04KT 10SM CLR 19/07 A3002 RMK AO2 SLP164 T01940072 58018